Terminal Aerodrome Forecast
Issued by NWS Atlanta, GA

Home | Current Version | Previous Version | Text Only | Print | Product List | Glossary On
Versions: 1 2 3 4 5 6 7 8 9 10 11 12 13 14 15 16
000
FTUS42 KFFC 221723
TAFMCN
TAF
KMCN 221723Z 2218/2318 35007KT P6SM BKN250
     FM230500 03004KT P6SM SCT050
     FM230900 06006KT P6SM BKN040
     FM231200 06007KT P6SM OVC030=

USA.gov is the U.S. government's official web portal to all federal, state and local government web resources and services.